createdAt,value
2017-11-14T00:00:04.086Z,2
2017-11-14T00:05:03.583Z,0
2017-11-14T00:10:03.354Z,0
2017-11-14T00:15:03.134Z,0
2017-11-14T00:20:02.751Z,0
2017-11-14T00:25:03.428Z,0
2017-11-14T00:30:03.131Z,1
2017-11-14T00:35:02.656Z,1
2017-11-14T00:40:03.203Z,0
2017-11-14T00:45:02.790Z,0
2017-11-14T00:50:03.517Z,0
2017-11-14T00:55:02.974Z,1
2017-11-14T01:00:02.628Z,0
2017-11-14T01:05:02.661Z,0
2017-11-14T01:10:03.224Z,0
2017-11-14T01:15:02.931Z,2
2017-11-14T01:20:03.580Z,1
2017-11-14T01:25:03.261Z,2
2017-11-14T01:30:02.962Z,0
2017-11-14T01:35:03.604Z,2
2017-11-14T01:40:03.263Z,1
2017-11-14T01:45:02.772Z,0
2017-11-14T01:50:03.341Z,2
2017-11-14T01:55:03.001Z,0
2017-11-14T02:00:03.545Z,0
2017-11-14T02:05:03.134Z,0
2017-11-14T02:10:02.855Z,0
2017-11-14T02:15:03.502Z,0
2017-11-14T02:20:03.189Z,0
2017-11-14T02:25:02.918Z,0
2017-11-14T02:30:02.674Z,1
2017-11-14T02:35:03.259Z,1
2017-11-14T02:40:02.986Z,1
2017-11-14T02:45:02.749Z,0
2017-11-14T02:50:03.379Z,0
2017-11-14T02:55:02.966Z,0
2017-11-14T03:00:02.678Z,0
2017-11-14T03:05:03.117Z,0
2017-11-14T03:10:02.673Z,2
2017-11-14T03:15:03.098Z,1
2017-11-14T03:20:02.787Z,1
2017-11-14T03:25:03.448Z,2
2017-11-14T03:30:03.127Z,2
2017-11-14T03:35:02.936Z,3
2017-11-14T03:40:03.473Z,3
2017-11-14T03:45:03.016Z,4
2017-11-14T03:50:03.541Z,4
2017-11-14T03:55:03.107Z,2
2017-11-14T04:00:03.525Z,1
2017-11-14T04:05:03.187Z,2
2017-11-14T04:10:02.753Z,2
2017-11-14T04:15:03.482Z,2
2017-11-14T04:20:02.903Z,0
2017-11-14T04:25:03.628Z,2
2017-11-14T04:30:03.214Z,2
2017-11-14T04:35:02.854Z,2
2017-11-14T04:40:03.554Z,2
2017-11-14T04:45:03.190Z,2
2017-11-14T04:50:02.678Z,2
2017-11-14T04:55:03.319Z,2
2017-11-14T05:00:03.091Z,0
2017-11-14T05:05:03.532Z,2
2017-11-14T05:10:03.161Z,2
2017-11-14T05:15:02.838Z,3
2017-11-14T05:20:03.430Z,3
2017-11-14T05:25:02.856Z,2
2017-11-14T05:30:03.525Z,3
2017-11-14T05:35:02.986Z,3
2017-11-14T05:40:03.450Z,2
2017-11-14T05:45:02.967Z,2
2017-11-14T05:50:03.408Z,1
2017-11-14T05:55:03.013Z,2
2017-11-14T06:00:03.656Z,3
2017-11-14T06:05:03.280Z,2
2017-11-14T06:10:02.737Z,3
2017-11-14T06:15:03.405Z,3
2017-11-14T06:20:03.076Z,3
2017-11-14T06:25:02.751Z,4
2017-11-14T06:30:03.462Z,2
2017-11-14T06:35:03.021Z,2
2017-11-14T06:40:03.582Z,3
2017-11-14T06:45:03.181Z,2
2017-11-14T06:50:02.774Z,3
2017-11-14T06:55:03.348Z,3
2017-11-14T07:00:02.977Z,2
2017-11-14T07:05:03.521Z,3
2017-11-14T07:10:03.244Z,2
2017-11-14T07:15:02.839Z,4
2017-11-14T07:25:03.179Z,2
2017-11-14T07:30:02.884Z,4
2017-11-14T07:35:03.467Z,3
2017-11-14T07:40:02.919Z,5
2017-11-14T07:45:04.870Z,7
2017-11-14T07:50:03.250Z,6
2017-11-14T07:55:02.886Z,6
2017-11-14T08:00:06.391Z,5
2017-11-14T08:05:02.801Z,8
2017-11-14T08:10:03.540Z,6
2017-11-14T08:15:08.153Z,8
2017-11-14T08:20:03.611Z,5
2017-11-14T08:25:03.085Z,7
2017-11-14T08:30:08.002Z,6
2017-11-14T08:35:03.419Z,5
2017-11-14T08:40:03.121Z,7
2017-11-14T08:45:05.252Z,7
2017-11-14T08:50:02.715Z,6
2017-11-14T08:55:03.320Z,6
2017-11-14T09:00:02.822Z,9
2017-11-14T09:05:03.365Z,8
2017-11-14T09:10:02.908Z,8
2017-11-14T09:15:02.674Z,8
2017-11-14T09:20:03.442Z,7
2017-11-14T09:25:02.936Z,8
2017-11-14T09:30:08.614Z,4
2017-11-14T09:35:03.153Z,4
2017-11-14T09:40:02.849Z,6
2017-11-14T09:45:03.295Z,5
2017-11-14T09:50:03.106Z,8
2017-11-14T09:55:02.674Z,8
2017-11-14T10:00:08.169Z,3
2017-11-14T10:05:03.613Z,7
2017-11-14T10:10:03.403Z,5
2017-11-14T10:15:02.844Z,5
2017-11-14T10:20:03.504Z,3
2017-11-14T10:25:03.164Z,7
2017-11-14T10:30:02.793Z,5
2017-11-14T10:35:03.449Z,5
2017-11-14T10:40:03.116Z,5
2017-11-14T10:45:02.838Z,6
2017-11-14T10:50:03.369Z,8
2017-11-14T10:55:03.057Z,7
2017-11-14T11:00:08.519Z,9
2017-11-14T11:05:02.903Z,7
2017-11-14T11:10:02.655Z,8
2017-11-14T11:15:03.167Z,8
2017-11-14T11:20:02.712Z,6
2017-11-14T11:25:03.193Z,5
2017-11-14T11:30:02.885Z,11
2017-11-14T11:35:03.333Z,7
2017-11-14T11:40:03.132Z,7
2017-11-14T11:45:03.574Z,9
2017-11-14T11:50:03.057Z,4
2017-11-14T11:55:03.608Z,5
2017-11-14T12:00:03.075Z,9
2017-11-14T12:05:03.624Z,5
2017-11-14T12:10:03.329Z,9
2017-11-14T12:15:02.816Z,4
2017-11-14T12:20:03.328Z,8
2017-11-14T12:25:02.965Z,6
2017-11-14T12:30:03.464Z,7
2017-11-14T12:35:03.125Z,6
2017-11-14T12:40:02.756Z,8
2017-11-14T12:45:03.339Z,6
2017-11-14T12:50:02.941Z,11
2017-11-14T12:55:03.475Z,10
2017-11-14T13:00:03.150Z,11
2017-11-14T13:05:02.901Z,7
2017-11-14T13:10:03.463Z,8
2017-11-14T13:15:03.005Z,7
2017-11-14T13:20:03.616Z,6
2017-11-14T13:25:03.093Z,7
2017-11-14T13:30:02.778Z,6
2017-11-14T13:35:03.563Z,7
2017-11-14T13:40:03.253Z,6
2017-11-14T13:45:02.929Z,6
2017-11-14T13:50:03.530Z,4
2017-11-14T13:55:02.922Z,5
2017-11-14T14:00:03.593Z,6
2017-11-14T14:05:03.359Z,6
2017-11-14T14:10:02.902Z,6
2017-11-14T14:15:03.364Z,6
2017-11-14T14:20:03.178Z,5
2017-11-14T14:25:02.698Z,3
2017-11-14T14:30:03.356Z,6
2017-11-14T14:35:03.037Z,5
2017-11-14T14:40:03.627Z,6
2017-11-14T14:45:03.206Z,7
2017-11-14T14:50:02.897Z,5
2017-11-14T14:55:03.561Z,6
2017-11-14T15:00:03.277Z,8
2017-11-14T15:05:02.903Z,8
2017-11-14T15:10:03.570Z,8
2017-11-14T15:15:03.236Z,7
2017-11-14T15:20:02.708Z,4
2017-11-14T15:25:03.192Z,4
2017-11-14T15:30:02.865Z,5
2017-11-14T15:35:03.476Z,6
2017-11-14T15:40:03.207Z,7
2017-11-14T15:45:02.800Z,4
2017-11-14T15:50:03.357Z,6
2017-11-14T15:55:02.980Z,6
2017-11-14T16:00:02.671Z,5
2017-11-14T16:05:03.273Z,6
2017-11-14T16:10:02.830Z,6
2017-11-14T16:15:03.506Z,5
2017-11-14T16:20:03.231Z,7
2017-11-14T16:25:02.919Z,7
2017-11-14T16:30:03.588Z,5
2017-11-14T16:35:03.080Z,4
2017-11-14T16:40:02.796Z,6
2017-11-14T16:45:03.305Z,5
2017-11-14T16:50:02.837Z,4
2017-11-14T16:55:03.383Z,3
2017-11-14T17:00:02.971Z,2
2017-11-14T17:05:02.846Z,8
2017-11-14T17:10:03.569Z,8
2017-11-14T17:15:03.251Z,3
2017-11-14T17:20:02.786Z,7
2017-11-14T17:25:03.317Z,7
2017-11-14T17:30:02.772Z,4
2017-11-14T17:35:03.343Z,4
2017-11-14T17:40:03.064Z,6
2017-11-14T17:45:02.684Z,4
2017-11-14T17:50:03.218Z,6
2017-11-14T17:55:02.884Z,3
2017-11-14T18:00:03.552Z,5
2017-11-14T18:05:03.060Z,7
2017-11-14T18:10:03.604Z,7
2017-11-14T18:15:03.348Z,5
2017-11-14T18:20:02.859Z,6
2017-11-14T18:25:03.503Z,8
2017-11-14T18:30:03.164Z,5
2017-11-14T18:35:02.831Z,5
2017-11-14T18:40:03.358Z,5
2017-11-14T18:45:02.983Z,3
2017-11-14T18:50:03.474Z,3
2017-11-14T18:55:03.071Z,3
2017-11-14T19:00:02.733Z,2
2017-11-14T19:05:03.420Z,4
2017-11-14T19:10:03.128Z,3
2017-11-14T19:15:03.609Z,3
2017-11-14T19:20:03.085Z,4
2017-11-14T19:25:03.579Z,4
2017-11-14T19:30:03.256Z,5
2017-11-14T19:35:03.005Z,5
2017-11-14T19:40:02.646Z,6
2017-11-14T19:45:03.350Z,6
2017-11-14T19:50:03.044Z,3
2017-11-14T19:55:03.524Z,3
2017-11-14T20:00:03.137Z,7
2017-11-14T20:05:02.783Z,5
2017-11-14T20:10:03.373Z,5
2017-11-14T20:15:03.184Z,4
2017-11-14T20:20:02.743Z,3
2017-11-14T20:25:03.311Z,3
2017-11-14T20:30:02.980Z,4
2017-11-14T20:35:03.516Z,4
2017-11-14T20:40:03.268Z,2
2017-11-14T20:45:02.911Z,3
2017-11-14T20:50:03.629Z,3
2017-11-14T20:55:03.231Z,2
2017-11-14T21:00:03.167Z,4
2017-11-14T21:05:02.849Z,5
2017-11-14T21:10:03.406Z,4
2017-11-14T21:15:03.240Z,4
2017-11-14T21:20:02.798Z,5
2017-11-14T21:25:03.281Z,3
2017-11-14T21:30:02.980Z,3
2017-11-14T21:35:03.523Z,3
2017-11-14T21:40:03.209Z,2
2017-11-14T21:45:02.684Z,3
2017-11-14T21:50:03.236Z,3
2017-11-14T21:55:02.753Z,3
2017-11-14T22:00:03.513Z,4
2017-11-14T22:05:02.913Z,2
2017-11-14T22:10:03.621Z,4
2017-11-14T22:15:03.111Z,4
2017-11-14T22:20:02.755Z,6
2017-11-14T22:25:03.455Z,3
2017-11-14T22:30:03.107Z,4
2017-11-14T22:35:03.628Z,3
2017-11-14T22:40:03.321Z,1
2017-11-14T22:45:02.973Z,4
2017-11-14T22:50:03.604Z,5
2017-11-14T22:55:03.226Z,3
2017-11-14T23:00:02.630Z,3
2017-11-14T23:05:03.212Z,4
2017-11-14T23:10:02.959Z,6
2017-11-14T23:15:03.567Z,5
2017-11-14T23:20:03.261Z,3
2017-11-14T23:25:02.827Z,4
2017-11-14T23:30:03.481Z,3
2017-11-14T23:35:03.142Z,2
2017-11-14T23:40:02.875Z,4
2017-11-14T23:45:03.498Z,3
2017-11-14T23:50:03.031Z,3
2017-11-14T23:55:03.492Z,7
